sensor_id;sensor_type;location;lat;lon;timestamp;temperature;humidity
17797;DHT22;55596;53.554;9.916;2023-01-04T00:01:34;6.30;99.90
17797;DHT22;55596;53.554;9.916;2023-01-04T00:04:01;6.10;99.90
17797;DHT22;55596;53.554;9.916;2023-01-04T00:06:28;6.20;99.90
17797;DHT22;55596;53.554;9.916;2023-01-04T00:08:55;6.10;99.90
17797;DHT22;55596;53.554;9.916;2023-01-04T00:11:22;2.80;99.90
17797;DHT22;55596;53.554;9.916;2023-01-04T00:13:51;6.20;99.90
17797;DHT22;55596;53.554;9.916;2023-01-04T00:16:21;6.20;99.90
17797;DHT22;55596;53.554;9.916;2023-01-04T00:18:48;6.40;99.90
17797;DHT22;55596;53.554;9.916;2023-01-04T00:21:17;6.40;99.90
17797;DHT22;55596;53.554;9.916;2023-01-04T00:23:45;6.50;99.90
17797;DHT22;55596;53.554;9.916;2023-01-04T00:26:14;6.50;99.90
17797;DHT22;55596;53.554;9.916;2023-01-04T00:28:42;6.60;99.90
17797;DHT22;55596;53.554;9.916;2023-01-04T00:31:10;6.50;99.90
17797;DHT22;55596;53.554;9.916;2023-01-04T00:33:39;6.60;99.90
17797;DHT22;55596;53.554;9.916;2023-01-04T00:36:08;6.60;99.90
17797;DHT22;55596;53.554;9.916;2023-01-04T00:38:36;6.70;99.90
17797;DHT22;55596;53.554;9.916;2023-01-04T00:41:04;6.70;99.90
17797;DHT22;55596;53.554;9.916;2023-01-04T00:43:31;6.80;99.90
17797;DHT22;55596;53.554;9.916;2023-01-04T00:45:58;6.60;99.90
17797;DHT22;55596;53.554;9.916;2023-01-04T00:48:26;6.80;99.90
17797;DHT22;55596;53.554;9.916;2023-01-04T00:50:55;6.70;99.90
17797;DHT22;55596;53.554;9.916;2023-01-04T00:53:22;6.80;99.90
17797;DHT22;55596;53.554;9.916;2023-01-04T00:55:49;6.90;99.90
17797;DHT22;55596;53.554;9.916;2023-01-04T00:58:15;7.00;99.90
17797;DHT22;55596;53.554;9.916;2023-01-04T01:00:42;7.00;99.90
17797;DHT22;55596;53.554;9.916;2023-01-04T01:03:09;7.00;99.90
17797;DHT22;55596;53.554;9.916;2023-01-04T01:05:36;7.00;99.90
17797;DHT22;55596;53.554;9.916;2023-01-04T01:08:04;7.00;99.90
17797;DHT22;55596;53.554;9.916;2023-01-04T01:10:45;7.10;99.90
17797;DHT22;55596;53.554;9.916;2023-01-04T01:13:12;7.10;99.90
17797;DHT22;55596;53.554;9.916;2023-01-04T01:15:39;7.10;99.90
17797;DHT22;55596;53.554;9.916;2023-01-04T01:18:06;7.20;99.90
17797;DHT22;55596;53.554;9.916;2023-01-04T01:20:32;7.10;99.90
17797;DHT22;55596;53.554;9.916;2023-01-04T01:22:59;7.20;99.90
17797;DHT22;55596;53.554;9.916;2023-01-04T01:25:27;7.10;99.90
17797;DHT22;55596;53.554;9.916;2023-01-04T01:27:54;7.30;99.90
17797;DHT22;55596;53.554;9.916;2023-01-04T01:30:21;7.30;99.90
17797;DHT22;55596;53.554;9.916;2023-01-04T01:32:48;7.20;99.90
17797;DHT22;55596;53.554;9.916;2023-01-04T01:35:15;7.20;99.90
17797;DHT22;55596;53.554;9.916;2023-01-04T01:37:42;7.20;99.90
17797;DHT22;55596;53.554;9.916;2023-01-04T01:40:10;7.30;99.90
17797;DHT22;55596;53.554;9.916;2023-01-04T01:42:39;7.20;99.90
17797;DHT22;55596;53.554;9.916;2023-01-04T01:45:08;7.20;99.90
17797;DHT22;55596;53.554;9.916;2023-01-04T01:47:44;7.20;99.90
17797;DHT22;55596;53.554;9.916;2023-01-04T01:50:19;7.20;99.90
17797;DHT22;55596;53.554;9.916;2023-01-04T01:52:48;7.30;99.90
17797;DHT22;55596;53.554;9.916;2023-01-04T01:55:17;7.30;99.90
17797;DHT22;55596;53.554;9.916;2023-01-04T01:57:47;7.40;99.90
17797;DHT22;55596;53.554;9.916;2023-01-04T02:00:15;7.40;99.90
17797;DHT22;55596;53.554;9.916;2023-01-04T02:02:50;7.30;99.90
17797;DHT22;55596;53.554;9.916;2023-01-04T02:05:19;7.40;99.90
17797;DHT22;55596;53.554;9.916;2023-01-04T02:07:47;7.50;99.90
17797;DHT22;55596;53.554;9.916;2023-01-04T02:10:15;7.40;99.90
17797;DHT22;55596;53.554;9.916;2023-01-04T02:12:43;7.40;99.90
17797;DHT22;55596;53.554;9.916;2023-01-04T02:15:12;7.40;99.90
17797;DHT22;55596;53.554;9.916;2023-01-04T02:17:44;7.50;99.90
17797;DHT22;55596;53.554;9.916;2023-01-04T02:20:33;7.50;99.90
17797;DHT22;55596;53.554;9.916;2023-01-04T02:32:17;7.50;99.90
17797;DHT22;55596;53.554;9.916;2023-01-04T02:34:51;7.50;99.90
17797;DHT22;55596;53.554;9.916;2023-01-04T02:37:26;7.40;99.90
17797;DHT22;55596;53.554;9.916;2023-01-04T02:39:59;7.40;99.90
17797;DHT22;55596;53.554;9.916;2023-01-04T02:42:35;7.40;99.90
17797;DHT22;55596;53.554;9.916;2023-01-04T02:45:27;7.40;99.90
17797;DHT22;55596;53.554;9.916;2023-01-04T02:48:00;7.30;99.90
17797;DHT22;55596;53.554;9.916;2023-01-04T02:50:50;7.30;99.90
17797;DHT22;55596;53.554;9.916;2023-01-04T02:53:20;7.30;99.90
17797;DHT22;55596;53.554;9.916;2023-01-04T02:55:51;7.30;99.90
17797;DHT22;55596;53.554;9.916;2023-01-04T02:58:35;7.30;99.90
17797;DHT22;55596;53.554;9.916;2023-01-04T03:01:13;7.30;99.90
17797;DHT22;55596;53.554;9.916;2023-01-04T03:04:10;7.20;99.90
17797;DHT22;55596;53.554;9.916;2023-01-04T03:07:01;7.30;99.90
17797;DHT22;55596;53.554;9.916;2023-01-04T03:09:34;7.20;99.90
17797;DHT22;55596;53.554;9.916;2023-01-04T03:12:06;7.20;99.90
17797;DHT22;55596;53.554;9.916;2023-01-04T03:14:54;7.20;99.90
17797;DHT22;55596;53.554;9.916;2023-01-04T03:17:27;7.20;99.90
17797;DHT22;55596;53.554;9.916;2023-01-04T03:19:57;7.00;99.90
17797;DHT22;55596;53.554;9.916;2023-01-04T03:22:31;7.20;99.90
17797;DHT22;55596;53.554;9.916;2023-01-04T03:25:18;7.10;99.90
17797;DHT22;55596;53.554;9.916;2023-01-04T03:28:06;7.30;99.90
17797;DHT22;55596;53.554;9.916;2023-01-04T03:30:54;7.20;99.90
17797;DHT22;55596;53.554;9.916;2023-01-04T03:33:39;7.20;99.90
17797;DHT22;55596;53.554;9.916;2023-01-04T03:36:32;7.10;99.90
17797;DHT22;55596;53.554;9.916;2023-01-04T03:39:09;6.90;99.90
17797;DHT22;55596;53.554;9.916;2023-01-04T03:41:58;6.80;99.90
17797;DHT22;55596;53.554;9.916;2023-01-04T03:44:48;6.70;99.90
17797;DHT22;55596;53.554;9.916;2023-01-04T03:47:41;6.60;99.90
17797;DHT22;55596;53.554;9.916;2023-01-04T03:50:34;6.60;99.90
17797;DHT22;55596;53.554;9.916;2023-01-04T03:53:04;6.40;99.90
17797;DHT22;55596;53.554;9.916;2023-01-04T03:55:32;6.40;99.90
17797;DHT22;55596;53.554;9.916;2023-01-04T03:57:59;7.50;99.90
17797;DHT22;55596;53.554;9.916;2023-01-04T04:00:27;6.40;99.90
17797;DHT22;55596;53.554;9.916;2023-01-04T04:02:56;6.20;99.90
17797;DHT22;55596;53.554;9.916;2023-01-04T04:05:33;6.20;99.90
17797;DHT22;55596;53.554;9.916;2023-01-04T04:08:19;6.20;99.90
17797;DHT22;55596;53.554;9.916;2023-01-04T04:10:56;6.10;99.90
17797;DHT22;55596;53.554;9.916;2023-01-04T04:13:43;6.10;99.90
17797;DHT22;55596;53.554;9.916;2023-01-04T04:16:10;6.10;99.90
17797;DHT22;55596;53.554;9.916;2023-01-04T04:18:37;6.00;99.90
17797;DHT22;55596;53.554;9.916;2023-01-04T04:21:04;6.00;99.90
17797;DHT22;55596;53.554;9.916;2023-01-04T04:23:32;6.00;99.90
17797;DHT22;55596;53.554;9.916;2023-01-04T04:25:59;6.10;99.90
17797;DHT22;55596;53.554;9.916;2023-01-04T04:28:26;6.10;99.90
17797;DHT22;55596;53.554;9.916;2023-01-04T04:30:52;6.00;99.90
17797;DHT22;55596;53.554;9.916;2023-01-04T04:33:19;6.10;99.90
17797;DHT22;55596;53.554;9.916;2023-01-04T04:35:49;6.00;99.90
17797;DHT22;55596;53.554;9.916;2023-01-04T04:38:16;6.10;99.90
17797;DHT22;55596;53.554;9.916;2023-01-04T04:40:44;6.10;99.90
17797;DHT22;55596;53.554;9.916;2023-01-04T04:43:28;6.10;99.90
17797;DHT22;55596;53.554;9.916;2023-01-04T04:45:55;6.10;99.90
17797;DHT22;55596;53.554;9.916;2023-01-04T04:48:22;6.10;99.90
17797;DHT22;55596;53.554;9.916;2023-01-04T04:50:49;6.10;99.90
17797;DHT22;55596;53.554;9.916;2023-01-04T04:53:16;6.00;99.90
17797;DHT22;55596;53.554;9.916;2023-01-04T04:55:44;6.00;99.90
17797;DHT22;55596;53.554;9.916;2023-01-04T04:58:11;6.10;99.90
17797;DHT22;55596;53.554;9.916;2023-01-04T05:00:39;6.10;99.90
17797;DHT22;55596;53.554;9.916;2023-01-04T05:03:06;6.10;99.90
17797;DHT22;55596;53.554;9.916;2023-01-04T05:05:33;6.00;99.90
17797;DHT22;55596;53.554;9.916;2023-01-04T05:07:59;6.20;99.90
17797;DHT22;55596;53.554;9.916;2023-01-04T05:10:26;6.30;99.90
17797;DHT22;55596;53.554;9.916;2023-01-04T05:12:54;6.30;99.90
17797;DHT22;55596;53.554;9.916;2023-01-04T05:15:27;6.30;99.90
17797;DHT22;55596;53.554;9.916;2023-01-04T05:17:54;6.30;99.90
17797;DHT22;55596;53.554;9.916;2023-01-04T05:20:21;6.40;99.90
17797;DHT22;55596;53.554;9.916;2023-01-04T05:22:48;6.40;99.90
17797;DHT22;55596;53.554;9.916;2023-01-04T05:25:15;6.40;99.90
17797;DHT22;55596;53.554;9.916;2023-01-04T05:27:42;6.50;99.90
17797;DHT22;55596;53.554;9.916;2023-01-04T05:30:12;6.40;99.90
17797;DHT22;55596;53.554;9.916;2023-01-04T05:32:56;6.50;99.90
17797;DHT22;55596;53.554;9.916;2023-01-04T05:35:24;6.50;99.90
17797;DHT22;55596;53.554;9.916;2023-01-04T05:37:50;6.50;99.90
17797;DHT22;55596;53.554;9.916;2023-01-04T05:40:18;6.60;99.90
17797;DHT22;55596;53.554;9.916;2023-01-04T05:42:44;6.50;99.90
17797;DHT22;55596;53.554;9.916;2023-01-04T05:45:13;6.50;99.90
17797;DHT22;55596;53.554;9.916;2023-01-04T05:47:40;6.60;99.90
17797;DHT22;55596;53.554;9.916;2023-01-04T05:50:08;6.50;99.90
17797;DHT22;55596;53.554;9.916;2023-01-04T05:52:35;6.60;99.90
17797;DHT22;55596;53.554;9.916;2023-01-04T05:55:03;6.60;99.90
17797;DHT22;55596;53.554;9.916;2023-01-04T05:57:30;6.70;99.90
17797;DHT22;55596;53.554;9.916;2023-01-04T05:59:56;6.70;99.90
17797;DHT22;55596;53.554;9.916;2023-01-04T06:02:27;6.70;99.90
17797;DHT22;55596;53.554;9.916;2023-01-04T06:04:55;6.80;99.90
17797;DHT22;55596;53.554;9.916;2023-01-04T06:07:22;6.80;99.90
17797;DHT22;55596;53.554;9.916;2023-01-04T06:09:49;6.70;99.90
17797;DHT22;55596;53.554;9.916;2023-01-04T06:12:16;6.90;99.90
17797;DHT22;55596;53.554;9.916;2023-01-04T06:14:43;6.80;99.90
17797;DHT22;55596;53.554;9.916;2023-01-04T06:19:38;6.80;99.90
17797;DHT22;55596;53.554;9.916;2023-01-04T06:22:06;7.00;99.90
17797;DHT22;55596;53.554;9.916;2023-01-04T06:24:33;7.00;99.90
17797;DHT22;55596;53.554;9.916;2023-01-04T06:27:00;7.00;99.90
17797;DHT22;55596;53.554;9.916;2023-01-04T06:29:26;7.00;99.90
17797;DHT22;55596;53.554;9.916;2023-01-04T06:31:53;7.10;99.90
17797;DHT22;55596;53.554;9.916;2023-01-04T06:34:20;7.20;99.90
17797;DHT22;55596;53.554;9.916;2023-01-04T06:36:49;7.10;99.90
17797;DHT22;55596;53.554;9.916;2023-01-04T06:39:15;7.20;99.90
17797;DHT22;55596;53.554;9.916;2023-01-04T06:41:43;7.30;99.90
17797;DHT22;55596;53.554;9.916;2023-01-04T06:44:09;7.20;99.90
17797;DHT22;55596;53.554;9.916;2023-01-04T06:46:36;7.30;99.90
17797;DHT22;55596;53.554;9.916;2023-01-04T06:49:03;7.40;99.90
17797;DHT22;55596;53.554;9.916;2023-01-04T06:51:30;7.50;99.90
17797;DHT22;55596;53.554;9.916;2023-01-04T06:53:58;7.40;99.90
17797;DHT22;55596;53.554;9.916;2023-01-04T06:56:25;7.40;99.90
17797;DHT22;55596;53.554;9.916;2023-01-04T06:58:52;7.50;99.90
17797;DHT22;55596;53.554;9.916;2023-01-04T07:01:19;7.60;99.90
17797;DHT22;55596;53.554;9.916;2023-01-04T07:03:45;7.60;99.90
17797;DHT22;55596;53.554;9.916;2023-01-04T07:06:12;7.60;99.90
17797;DHT22;55596;53.554;9.916;2023-01-04T07:08:39;7.50;99.90
17797;DHT22;55596;53.554;9.916;2023-01-04T07:11:07;7.60;99.90
17797;DHT22;55596;53.554;9.916;2023-01-04T07:13:34;7.60;99.90
17797;DHT22;55596;53.554;9.916;2023-01-04T07:16:01;7.80;99.90
17797;DHT22;55596;53.554;9.916;2023-01-04T07:20:55;7.70;99.90
17797;DHT22;55596;53.554;9.916;2023-01-04T07:23:22;7.80;99.90
17797;DHT22;55596;53.554;9.916;2023-01-04T07:25:49;7.80;99.90
17797;DHT22;55596;53.554;9.916;2023-01-04T07:28:17;7.80;99.90
17797;DHT22;55596;53.554;9.916;2023-01-04T07:30:57;7.80;99.90
17797;DHT22;55596;53.554;9.916;2023-01-04T07:33:24;8.00;99.90
17797;DHT22;55596;53.554;9.916;2023-01-04T07:35:51;8.00;99.90
17797;DHT22;55596;53.554;9.916;2023-01-04T07:38:18;8.00;99.90
17797;DHT22;55596;53.554;9.916;2023-01-04T07:40:52;8.00;99.90
17797;DHT22;55596;53.554;9.916;2023-01-04T07:43:20;8.10;99.90
17797;DHT22;55596;53.554;9.916;2023-01-04T07:45:47;8.00;99.90
17797;DHT22;55596;53.554;9.916;2023-01-04T07:48:13;8.10;99.90
17797;DHT22;55596;53.554;9.916;2023-01-04T07:50:40;8.10;99.90
17797;DHT22;55596;53.554;9.916;2023-01-04T07:53:07;8.20;99.90
17797;DHT22;55596;53.554;9.916;2023-01-04T07:55:34;8.20;99.90
17797;DHT22;55596;53.554;9.916;2023-01-04T07:58:01;8.20;99.90
17797;DHT22;55596;53.554;9.916;2023-01-04T08:00:29;8.30;99.90
17797;DHT22;55596;53.554;9.916;2023-01-04T08:02:56;8.40;99.90
17797;DHT22;55596;53.554;9.916;2023-01-04T08:05:23;8.50;99.90
17797;DHT22;55596;53.554;9.916;2023-01-04T08:07:50;8.40;99.90
17797;DHT22;55596;53.554;9.916;2023-01-04T08:10:17;8.40;99.90
17797;DHT22;55596;53.554;9.916;2023-01-04T08:12:44;8.40;99.90
17797;DHT22;55596;53.554;9.916;2023-01-04T08:15:11;8.40;99.90
17797;DHT22;55596;53.554;9.916;2023-01-04T08:17:40;8.50;99.90
17797;DHT22;55596;53.554;9.916;2023-01-04T08:20:07;8.50;99.90
17797;DHT22;55596;53.554;9.916;2023-01-04T08:22:34;8.50;99.90
17797;DHT22;55596;53.554;9.916;2023-01-04T08:25:03;8.50;99.90
17797;DHT22;55596;53.554;9.916;2023-01-04T08:27:30;8.50;99.90
17797;DHT22;55596;53.554;9.916;2023-01-04T08:29:57;8.60;99.90
17797;DHT22;55596;53.554;9.916;2023-01-04T08:34:52;8.60;99.90
17797;DHT22;55596;53.554;9.916;2023-01-04T08:37:20;8.70;99.90
17797;DHT22;55596;53.554;9.916;2023-01-04T08:39:47;8.70;99.90
17797;DHT22;55596;53.554;9.916;2023-01-04T08:42:13;8.70;99.90
17797;DHT22;55596;53.554;9.916;2023-01-04T08:44:40;8.70;99.90
17797;DHT22;55596;53.554;9.916;2023-01-04T08:47:07;8.80;99.90
17797;DHT22;55596;53.554;9.916;2023-01-04T08:49:34;8.80;99.90
17797;DHT22;55596;53.554;9.916;2023-01-04T08:52:02;8.80;99.90
17797;DHT22;55596;53.554;9.916;2023-01-04T08:54:29;8.80;99.90
17797;DHT22;55596;53.554;9.916;2023-01-04T08:56:56;8.90;99.90
17797;DHT22;55596;53.554;9.916;2023-01-04T08:59:23;8.90;99.90
17797;DHT22;55596;53.554;9.916;2023-01-04T09:01:50;9.00;99.90
17797;DHT22;55596;53.554;9.916;2023-01-04T09:04:17;9.00;99.90
17797;DHT22;55596;53.554;9.916;2023-01-04T09:06:43;9.10;99.90
17797;DHT22;55596;53.554;9.916;2023-01-04T09:09:12;9.10;99.90
17797;DHT22;55596;53.554;9.916;2023-01-04T09:11:39;9.10;99.90
17797;DHT22;55596;53.554;9.916;2023-01-04T09:14:05;9.10;99.90
17797;DHT22;55596;53.554;9.916;2023-01-04T09:16:36;9.20;99.90
17797;DHT22;55596;53.554;9.916;2023-01-04T09:19:03;9.20;99.90
17797;DHT22;55596;53.554;9.916;2023-01-04T09:21:30;9.20;99.90
17797;DHT22;55596;53.554;9.916;2023-01-04T09:23:57;9.30;99.90
17797;DHT22;55596;53.554;9.916;2023-01-04T09:26:25;9.40;99.90
17797;DHT22;55596;53.554;9.916;2023-01-04T09:28:54;9.40;99.90
17797;DHT22;55596;53.554;9.916;2023-01-04T09:31:22;9.40;99.90
17797;DHT22;55596;53.554;9.916;2023-01-04T09:33:49;9.50;99.90
17797;DHT22;55596;53.554;9.916;2023-01-04T09:36:17;9.50;99.90
17797;DHT22;55596;53.554;9.916;2023-01-04T09:38:44;9.40;99.90
17797;DHT22;55596;53.554;9.916;2023-01-04T09:41:17;9.50;99.90
17797;DHT22;55596;53.554;9.916;2023-01-04T09:43:49;9.50;99.90
17797;DHT22;55596;53.554;9.916;2023-01-04T09:46:25;9.50;99.90
17797;DHT22;55596;53.554;9.916;2023-01-04T09:48:59;9.50;99.90
17797;DHT22;55596;53.554;9.916;2023-01-04T09:51:32;9.40;99.90
17797;DHT22;55596;53.554;9.916;2023-01-04T09:54:03;9.60;99.90
17797;DHT22;55596;53.554;9.916;2023-01-04T09:56:32;9.60;99.90
17797;DHT22;55596;53.554;9.916;2023-01-04T09:59:05;9.40;99.90
17797;DHT22;55596;53.554;9.916;2023-01-04T10:01:42;9.60;99.90
17797;DHT22;55596;53.554;9.916;2023-01-04T10:04:15;9.60;99.90
17797;DHT22;55596;53.554;9.916;2023-01-04T10:06:43;9.60;99.90
17797;DHT22;55596;53.554;9.916;2023-01-04T10:09:12;9.70;99.90
17797;DHT22;55596;53.554;9.916;2023-01-04T10:11:53;9.70;99.90
17797;DHT22;55596;53.554;9.916;2023-01-04T10:14:37;9.70;99.90
17797;DHT22;55596;53.554;9.916;2023-01-04T10:17:13;9.70;99.90
17797;DHT22;55596;53.554;9.916;2023-01-04T10:20:03;9.70;99.90
17797;DHT22;55596;53.554;9.916;2023-01-04T10:22:40;9.70;99.90
17797;DHT22;55596;53.554;9.916;2023-01-04T10:25:19;9.70;99.90
17797;DHT22;55596;53.554;9.916;2023-01-04T10:27:56;9.70;99.90
17797;DHT22;55596;53.554;9.916;2023-01-04T10:30:33;9.70;99.90
17797;DHT22;55596;53.554;9.916;2023-01-04T10:33:12;9.70;99.90
17797;DHT22;55596;53.554;9.916;2023-01-04T10:35:41;9.80;99.90
17797;DHT22;55596;53.554;9.916;2023-01-04T10:38:14;9.80;99.90
17797;DHT22;55596;53.554;9.916;2023-01-04T10:40:45;9.70;99.90
17797;DHT22;55596;53.554;9.916;2023-01-04T10:43:19;9.80;99.90
17797;DHT22;55596;53.554;9.916;2023-01-04T10:45:55;9.80;99.90
17797;DHT22;55596;53.554;9.916;2023-01-04T10:48:29;9.80;99.90
17797;DHT22;55596;53.554;9.916;2023-01-04T10:51:00;9.90;99.90
17797;DHT22;55596;53.554;9.916;2023-01-04T10:53:31;9.80;99.90
17797;DHT22;55596;53.554;9.916;2023-01-04T10:56:03;9.90;99.90
17797;DHT22;55596;53.554;9.916;2023-01-04T10:58:36;9.90;99.90
17797;DHT22;55596;53.554;9.916;2023-01-04T11:01:13;9.90;99.90
17797;DHT22;55596;53.554;9.916;2023-01-04T11:03:45;10.00;99.90
17797;DHT22;55596;53.554;9.916;2023-01-04T11:06:15;10.00;99.90
17797;DHT22;55596;53.554;9.916;2023-01-04T11:08:47;10.00;99.90
17797;DHT22;55596;53.554;9.916;2023-01-04T11:11:18;10.00;99.90
17797;DHT22;55596;53.554;9.916;2023-01-04T11:13:46;10.00;99.90
17797;DHT22;55596;53.554;9.916;2023-01-04T11:16:15;10.00;99.90
17797;DHT22;55596;53.554;9.916;2023-01-04T11:18:43;10.00;99.90
17797;DHT22;55596;53.554;9.916;2023-01-04T11:21:13;10.00;99.90
17797;DHT22;55596;53.554;9.916;2023-01-04T11:23:40;10.00;99.90
17797;DHT22;55596;53.554;9.916;2023-01-04T11:26:10;10.10;99.90
17797;DHT22;55596;53.554;9.916;2023-01-04T11:28:43;10.10;99.90
17797;DHT22;55596;53.554;9.916;2023-01-04T11:31:18;10.10;99.90
17797;DHT22;55596;53.554;9.916;2023-01-04T11:33:53;10.10;99.90
17797;DHT22;55596;53.554;9.916;2023-01-04T11:36:35;10.20;99.90
17797;DHT22;55596;53.554;9.916;2023-01-04T11:39:04;10.10;99.90
17797;DHT22;55596;53.554;9.916;2023-01-04T11:44:00;10.20;99.90
17797;DHT22;55596;53.554;9.916;2023-01-04T11:46:30;10.20;99.90
17797;DHT22;55596;53.554;9.916;2023-01-04T11:48:57;10.30;99.90
17797;DHT22;55596;53.554;9.916;2023-01-04T11:51:34;10.20;99.90
17797;DHT22;55596;53.554;9.916;2023-01-04T11:54:05;10.30;99.90
17797;DHT22;55596;53.554;9.916;2023-01-04T11:56:33;10.20;99.90
17797;DHT22;55596;53.554;9.916;2023-01-04T11:59:03;10.20;99.90
17797;DHT22;55596;53.554;9.916;2023-01-04T12:01:33;10.30;99.90
17797;DHT22;55596;53.554;9.916;2023-01-04T12:04:01;10.00;99.90
17797;DHT22;55596;53.554;9.916;2023-01-04T12:06:35;10.30;99.90
17797;DHT22;55596;53.554;9.916;2023-01-04T12:09:04;10.30;99.90
17797;DHT22;55596;53.554;9.916;2023-01-04T12:11:33;10.30;99.90
17797;DHT22;55596;53.554;9.916;2023-01-04T12:14:00;10.30;99.90
17797;DHT22;55596;53.554;9.916;2023-01-04T12:16:40;10.30;99.90
17797;DHT22;55596;53.554;9.916;2023-01-04T12:19:13;10.30;99.90
17797;DHT22;55596;53.554;9.916;2023-01-04T12:21:43;10.40;99.90
17797;DHT22;55596;53.554;9.916;2023-01-04T12:24:15;10.40;99.90
17797;DHT22;55596;53.554;9.916;2023-01-04T12:26:43;10.40;99.90
17797;DHT22;55596;53.554;9.916;2023-01-04T12:32:46;10.40;99.90
17797;DHT22;55596;53.554;9.916;2023-01-04T12:38:58;10.30;99.90
17797;DHT22;55596;53.554;9.916;2023-01-04T12:47:38;10.40;99.90
17797;DHT22;55596;53.554;9.916;2023-01-04T12:50:24;10.40;99.90
17797;DHT22;55596;53.554;9.916;2023-01-04T12:52:55;10.50;99.90
17797;DHT22;55596;53.554;9.916;2023-01-04T12:55:25;10.40;99.90
17797;DHT22;55596;53.554;9.916;2023-01-04T12:57:53;10.50;99.90
17797;DHT22;55596;53.554;9.916;2023-01-04T13:00:19;10.40;99.90
17797;DHT22;55596;53.554;9.916;2023-01-04T13:02:47;10.50;99.90
17797;DHT22;55596;53.554;9.916;2023-01-04T13:05:36;10.60;99.90
17797;DHT22;55596;53.554;9.916;2023-01-04T13:08:10;10.50;99.90
17797;DHT22;55596;53.554;9.916;2023-01-04T13:10:41;10.60;99.90
17797;DHT22;55596;53.554;9.916;2023-01-04T13:13:30;10.50;99.90
17797;DHT22;55596;53.554;9.916;2023-01-04T13:16:08;10.60;99.90
17797;DHT22;55596;53.554;9.916;2023-01-04T13:18:40;10.60;99.90
17797;DHT22;55596;53.554;9.916;2023-01-04T13:21:12;10.60;99.90
17797;DHT22;55596;53.554;9.916;2023-01-04T13:23:44;10.60;99.90
17797;DHT22;55596;53.554;9.916;2023-01-04T13:26:36;10.60;99.90
17797;DHT22;55596;53.554;9.916;2023-01-04T13:29:11;10.60;99.90
17797;DHT22;55596;53.554;9.916;2023-01-04T13:31:44;10.60;99.90
17797;DHT22;55596;53.554;9.916;2023-01-04T13:34:18;10.60;99.90
17797;DHT22;55596;53.554;9.916;2023-01-04T13:37:03;10.60;99.90
17797;DHT22;55596;53.554;9.916;2023-01-04T13:39:30;10.60;99.90
17797;DHT22;55596;53.554;9.916;2023-01-04T13:41:57;10.60;99.90
17797;DHT22;55596;53.554;9.916;2023-01-04T13:44:35;10.60;99.90
17797;DHT22;55596;53.554;9.916;2023-01-04T13:47:07;10.60;99.90
17797;DHT22;55596;53.554;9.916;2023-01-04T13:49:36;10.50;99.90
17797;DHT22;55596;53.554;9.916;2023-01-04T13:52:19;10.60;99.90
17797;DHT22;55596;53.554;9.916;2023-01-04T13:54:46;10.60;99.90
17797;DHT22;55596;53.554;9.916;2023-01-04T13:57:15;10.50;99.90
17797;DHT22;55596;53.554;9.916;2023-01-04T13:59:46;10.70;99.90
17797;DHT22;55596;53.554;9.916;2023-01-04T14:02:15;10.60;99.90
17797;DHT22;55596;53.554;9.916;2023-01-04T14:04:43;10.60;99.90
17797;DHT22;55596;53.554;9.916;2023-01-04T14:07:10;10.60;99.90
17797;DHT22;55596;53.554;9.916;2023-01-04T14:09:43;10.60;99.90
17797;DHT22;55596;53.554;9.916;2023-01-04T14:12:14;10.60;99.90
17797;DHT22;55596;53.554;9.916;2023-01-04T14:14:48;10.70;99.90
17797;DHT22;55596;53.554;9.916;2023-01-04T14:17:19;10.60;99.90
17797;DHT22;55596;53.554;9.916;2023-01-04T14:19:52;10.60;99.90
17797;DHT22;55596;53.554;9.916;2023-01-04T14:22:41;10.70;99.90
17797;DHT22;55596;53.554;9.916;2023-01-04T14:25:40;10.60;99.90
17797;DHT22;55596;53.554;9.916;2023-01-04T14:28:31;10.60;99.90
17797;DHT22;55596;53.554;9.916;2023-01-04T14:31:32;10.60;99.90
17797;DHT22;55596;53.554;9.916;2023-01-04T14:34:10;10.50;99.90
17797;DHT22;55596;53.554;9.916;2023-01-04T14:36:40;10.50;99.90
17797;DHT22;55596;53.554;9.916;2023-01-04T14:39:20;10.50;99.90
17797;DHT22;55596;53.554;9.916;2023-01-04T14:41:54;10.50;99.90
17797;DHT22;55596;53.554;9.916;2023-01-04T14:44:23;10.50;99.90
17797;DHT22;55596;53.554;9.916;2023-01-04T14:46:54;10.50;99.90
17797;DHT22;55596;53.554;9.916;2023-01-04T14:49:21;10.50;99.90
17797;DHT22;55596;53.554;9.916;2023-01-04T14:51:52;10.40;99.90
17797;DHT22;55596;53.554;9.916;2023-01-04T14:54:20;10.40;99.90
17797;DHT22;55596;53.554;9.916;2023-01-04T14:56:47;10.40;99.90
17797;DHT22;55596;53.554;9.916;2023-01-04T14:59:15;10.30;99.90
17797;DHT22;55596;53.554;9.916;2023-01-04T15:01:42;10.40;99.90
17797;DHT22;55596;53.554;9.916;2023-01-04T15:04:09;10.40;99.90
17797;DHT22;55596;53.554;9.916;2023-01-04T15:06:36;10.40;99.90
17797;DHT22;55596;53.554;9.916;2023-01-04T15:09:11;10.30;99.90
17797;DHT22;55596;53.554;9.916;2023-01-04T15:11:38;10.30;99.90
17797;DHT22;55596;53.554;9.916;2023-01-04T15:14:05;10.30;99.90
17797;DHT22;55596;53.554;9.916;2023-01-04T15:16:33;10.30;99.90
17797;DHT22;55596;53.554;9.916;2023-01-04T15:19:00;10.30;99.90
17797;DHT22;55596;53.554;9.916;2023-01-04T15:21:27;10.30;99.90
17797;DHT22;55596;53.554;9.916;2023-01-04T15:23:53;10.20;99.90
17797;DHT22;55596;53.554;9.916;2023-01-04T15:26:20;10.30;99.90
17797;DHT22;55596;53.554;9.916;2023-01-04T15:28:47;10.30;99.90
17797;DHT22;55596;53.554;9.916;2023-01-04T15:31:14;9.30;99.90
17797;DHT22;55596;53.554;9.916;2023-01-04T15:33:42;10.30;99.90
17797;DHT22;55596;53.554;9.916;2023-01-04T15:36:12;10.40;99.90
17797;DHT22;55596;53.554;9.916;2023-01-04T15:38:39;10.50;99.90
17797;DHT22;55596;53.554;9.916;2023-01-04T15:41:09;10.40;99.90
17797;DHT22;55596;53.554;9.916;2023-01-04T15:43:56;10.40;99.90
17797;DHT22;55596;53.554;9.916;2023-01-04T15:46:22;10.40;99.90
17797;DHT22;55596;53.554;9.916;2023-01-04T15:48:50;10.30;99.90
17797;DHT22;55596;53.554;9.916;2023-01-04T15:51:17;10.40;99.90
17797;DHT22;55596;53.554;9.916;2023-01-04T15:53:44;10.40;99.90
17797;DHT22;55596;53.554;9.916;2023-01-04T15:56:11;10.50;99.90
17797;DHT22;55596;53.554;9.916;2023-01-04T15:58:39;10.50;99.90
17797;DHT22;55596;53.554;9.916;2023-01-04T16:01:07;10.50;99.90
17797;DHT22;55596;53.554;9.916;2023-01-04T16:03:34;10.50;99.90
17797;DHT22;55596;53.554;9.916;2023-01-04T16:06:08;10.60;99.90
17797;DHT22;55596;53.554;9.916;2023-01-04T16:08:35;10.60;99.90
17797;DHT22;55596;53.554;9.916;2023-01-04T16:11:09;10.50;99.90
17797;DHT22;55596;53.554;9.916;2023-01-04T16:13:36;10.50;99.90
17797;DHT22;55596;53.554;9.916;2023-01-04T16:16:03;10.50;99.90
17797;DHT22;55596;53.554;9.916;2023-01-04T16:18:31;10.60;99.90
17797;DHT22;55596;53.554;9.916;2023-01-04T16:21:14;10.60;99.90
17797;DHT22;55596;53.554;9.916;2023-01-04T16:23:41;10.50;99.90
17797;DHT22;55596;53.554;9.916;2023-01-04T16:26:12;10.50;99.90
17797;DHT22;55596;53.554;9.916;2023-01-04T16:28:40;10.50;99.90
17797;DHT22;55596;53.554;9.916;2023-01-04T16:31:07;10.40;99.90
17797;DHT22;55596;53.554;9.916;2023-01-04T16:33:35;10.50;99.90
17797;DHT22;55596;53.554;9.916;2023-01-04T16:36:03;10.40;99.90